sensor_id;sensor_type;location;lat;lon;timestamp;P1;durP1;ratioP1;P2;durP2;ratioP2
50547;SDS011;38013;48.810;8.818;2022-11-04T00:01:41;1.17;;;0.63;;
50547;SDS011;38013;48.810;8.818;2022-11-04T00:04:09;1.30;;;0.70;;
50547;SDS011;38013;48.810;8.818;2022-11-04T00:06:36;1.55;;;0.70;;
50547;SDS011;38013;48.810;8.818;2022-11-04T00:09:04;1.23;;;0.75;;
50547;SDS011;38013;48.810;8.818;2022-11-04T00:11:34;1.50;;;0.75;;
50547;SDS011;38013;48.810;8.818;2022-11-04T00:14:19;1.00;;;0.50;;
50547;SDS011;38013;48.810;8.818;2022-11-04T00:16:44;1.95;;;0.73;;
50547;SDS011;38013;48.810;8.818;2022-11-04T00:19:29;1.10;;;0.60;;
50547;SDS011;38013;48.810;8.818;2022-11-04T00:22:15;1.60;;;0.80;;
50547;SDS011;38013;48.810;8.818;2022-11-04T00:25:00;2.33;;;0.90;;
50547;SDS011;38013;48.810;8.818;2022-11-04T00:27:44;1.40;;;0.50;;
50547;SDS011;38013;48.810;8.818;2022-11-04T00:30:29;1.30;;;0.65;;
50547;SDS011;38013;48.810;8.818;2022-11-04T00:32:54;1.17;;;0.60;;
50547;SDS011;38013;48.810;8.818;2022-11-04T00:35:38;1.33;;;0.70;;
50547;SDS011;38013;48.810;8.818;2022-11-04T00:38:04;1.30;;;0.70;;
50547;SDS011;38013;48.810;8.818;2022-11-04T00:40:30;1.63;;;0.60;;
50547;SDS011;38013;48.810;8.818;2022-11-04T00:42:56;1.33;;;0.68;;
50547;SDS011;38013;48.810;8.818;2022-11-04T00:45:21;1.25;;;0.70;;
50547;SDS011;38013;48.810;8.818;2022-11-04T00:47:47;1.35;;;0.60;;
50547;SDS011;38013;48.810;8.818;2022-11-04T00:50:13;1.25;;;0.60;;
50547;SDS011;38013;48.810;8.818;2022-11-04T00:52:38;2.40;;;0.60;;
50547;SDS011;38013;48.810;8.818;2022-11-04T00:55:04;1.33;;;0.70;;
50547;SDS011;38013;48.810;8.818;2022-11-04T00:57:31;1.67;;;0.60;;
50547;SDS011;38013;48.810;8.818;2022-11-04T00:59:57;1.33;;;0.80;;
50547;SDS011;38013;48.810;8.818;2022-11-04T01:02:24;3.05;;;0.68;;
50547;SDS011;38013;48.810;8.818;2022-11-04T01:04:50;2.17;;;0.60;;
50547;SDS011;38013;48.810;8.818;2022-11-04T01:07:16;1.15;;;0.50;;
50547;SDS011;38013;48.810;8.818;2022-11-04T01:09:41;0.98;;;0.50;;
50547;SDS011;38013;48.810;8.818;2022-11-04T01:12:07;0.88;;;0.52;;
50547;SDS011;38013;48.810;8.818;2022-11-04T01:14:33;1.23;;;0.50;;
50547;SDS011;38013;48.810;8.818;2022-11-04T01:16:59;0.80;;;0.50;;
50547;SDS011;38013;48.810;8.818;2022-11-04T01:19:24;0.68;;;0.40;;
50547;SDS011;38013;48.810;8.818;2022-11-04T01:21:51;0.40;;;0.40;;
50547;SDS011;38013;48.810;8.818;2022-11-04T01:24:17;0.85;;;0.40;;
50547;SDS011;38013;48.810;8.818;2022-11-04T01:26:43;1.80;;;0.52;;
50547;SDS011;38013;48.810;8.818;2022-11-04T01:29:09;2.60;;;0.57;;
50547;SDS011;38013;48.810;8.818;2022-11-04T01:31:35;1.08;;;0.50;;
50547;SDS011;38013;48.810;8.818;2022-11-04T01:34:00;0.90;;;0.45;;
50547;SDS011;38013;48.810;8.818;2022-11-04T01:36:26;1.05;;;0.40;;
50547;SDS011;38013;48.810;8.818;2022-11-04T01:38:53;0.77;;;0.55;;
50547;SDS011;38013;48.810;8.818;2022-11-04T01:41:22;1.15;;;0.50;;
50547;SDS011;38013;48.810;8.818;2022-11-04T01:43:58;1.67;;;0.40;;
50547;SDS011;38013;48.810;8.818;2022-11-04T01:46:49;2.10;;;0.60;;
50547;SDS011;38013;48.810;8.818;2022-11-04T01:52:04;1.55;;;0.40;;
50547;SDS011;38013;48.810;8.818;2022-11-04T01:54:34;1.08;;;0.50;;
50547;SDS011;38013;48.810;8.818;2022-11-04T01:57:03;1.17;;;0.50;;
50547;SDS011;38013;48.810;8.818;2022-11-04T01:59:34;1.05;;;0.50;;
50547;SDS011;38013;48.810;8.818;2022-11-04T02:02:04;2.58;;;0.50;;
50547;SDS011;38013;48.810;8.818;2022-11-04T02:04:30;1.17;;;0.52;;
50547;SDS011;38013;48.810;8.818;2022-11-04T02:06:57;2.17;;;0.70;;
50547;SDS011;38013;48.810;8.818;2022-11-04T02:09:30;2.10;;;0.60;;
50547;SDS011;38013;48.810;8.818;2022-11-04T02:11:58;3.92;;;0.68;;
50547;SDS011;38013;48.810;8.818;2022-11-04T02:14:43;3.03;;;0.50;;
50547;SDS011;38013;48.810;8.818;2022-11-04T02:34:10;3.58;;;0.60;;
50547;SDS011;38013;48.810;8.818;2022-11-04T02:39:31;2.55;;;0.70;;
50547;SDS011;38013;48.810;8.818;2022-11-04T02:42:21;3.03;;;0.50;;
50547;SDS011;38013;48.810;8.818;2022-11-04T02:45:11;2.22;;;0.73;;
50547;SDS011;38013;48.810;8.818;2022-11-04T02:48:06;1.83;;;0.70;;
50547;SDS011;38013;48.810;8.818;2022-11-04T02:50:44;1.25;;;0.50;;
50547;SDS011;38013;48.810;8.818;2022-11-04T02:53:41;1.40;;;0.50;;
50547;SDS011;38013;48.810;8.818;2022-11-04T02:56:14;3.50;;;0.57;;
50547;SDS011;38013;48.810;8.818;2022-11-04T02:58:47;2.65;;;0.63;;
50547;SDS011;38013;48.810;8.818;2022-11-04T03:01:21;1.90;;;0.55;;
50547;SDS011;38013;48.810;8.818;2022-11-04T03:03:52;1.15;;;0.52;;
50547;SDS011;38013;48.810;8.818;2022-11-04T03:06:33;1.90;;;0.52;;
50547;SDS011;38013;48.810;8.818;2022-11-04T03:09:00;5.25;;;0.70;;
50547;SDS011;38013;48.810;8.818;2022-11-04T03:11:27;2.83;;;0.55;;
50547;SDS011;38013;48.810;8.818;2022-11-04T03:13:56;3.88;;;0.60;;
50547;SDS011;38013;48.810;8.818;2022-11-04T03:16:37;1.38;;;0.50;;
50547;SDS011;38013;48.810;8.818;2022-11-04T03:19:12;1.52;;;0.40;;
50547;SDS011;38013;48.810;8.818;2022-11-04T03:21:52;2.42;;;0.47;;
50547;SDS011;38013;48.810;8.818;2022-11-04T03:24:23;3.20;;;0.57;;
50547;SDS011;38013;48.810;8.818;2022-11-04T03:26:59;2.92;;;0.70;;
50547;SDS011;38013;48.810;8.818;2022-11-04T03:29:32;1.40;;;0.60;;
50547;SDS011;38013;48.810;8.818;2022-11-04T03:32:18;2.60;;;0.52;;
50547;SDS011;38013;48.810;8.818;2022-11-04T03:34:50;2.47;;;0.73;;
50547;SDS011;38013;48.810;8.818;2022-11-04T03:37:16;0.82;;;0.55;;
50547;SDS011;38013;48.810;8.818;2022-11-04T03:39:42;2.40;;;0.60;;
50547;SDS011;38013;48.810;8.818;2022-11-04T03:42:09;2.03;;;0.70;;
50547;SDS011;38013;48.810;8.818;2022-11-04T03:44:47;2.75;;;0.60;;
50547;SDS011;38013;48.810;8.818;2022-11-04T03:47:15;2.25;;;0.55;;
50547;SDS011;38013;48.810;8.818;2022-11-04T03:49:43;1.65;;;0.50;;
50547;SDS011;38013;48.810;8.818;2022-11-04T03:52:11;1.63;;;0.43;;
50547;SDS011;38013;48.810;8.818;2022-11-04T03:54:38;2.55;;;0.50;;
50547;SDS011;38013;48.810;8.818;2022-11-04T04:08:34;3.42;;;0.65;;
50547;SDS011;38013;48.810;8.818;2022-11-04T04:16:38;2.88;;;0.50;;
50547;SDS011;38013;48.810;8.818;2022-11-04T04:21:44;2.65;;;0.70;;
50547;SDS011;38013;48.810;8.818;2022-11-04T04:24:17;3.45;;;0.50;;
50547;SDS011;38013;48.810;8.818;2022-11-04T04:27:04;1.63;;;0.50;;
50547;SDS011;38013;48.810;8.818;2022-11-04T04:29:49;2.22;;;0.70;;
50547;SDS011;38013;48.810;8.818;2022-11-04T04:32:19;2.63;;;0.85;;
50547;SDS011;38013;48.810;8.818;2022-11-04T04:34:47;3.28;;;0.80;;
50547;SDS011;38013;48.810;8.818;2022-11-04T04:37:22;3.05;;;1.10;;
50547;SDS011;38013;48.810;8.818;2022-11-04T04:39:50;2.47;;;0.70;;
50547;SDS011;38013;48.810;8.818;2022-11-04T04:42:38;4.22;;;0.80;;
50547;SDS011;38013;48.810;8.818;2022-11-04T04:45:24;1.92;;;0.88;;
50547;SDS011;38013;48.810;8.818;2022-11-04T04:48:00;3.45;;;0.70;;
50547;SDS011;38013;48.810;8.818;2022-11-04T04:50:36;3.20;;;0.70;;
50547;SDS011;38013;48.810;8.818;2022-11-04T04:53:09;3.28;;;1.00;;
50547;SDS011;38013;48.810;8.818;2022-11-04T04:55:35;1.55;;;0.60;;
50547;SDS011;38013;48.810;8.818;2022-11-04T04:58:01;1.67;;;0.60;;
50547;SDS011;38013;48.810;8.818;2022-11-04T05:00:27;2.40;;;0.60;;
50547;SDS011;38013;48.810;8.818;2022-11-04T05:02:53;2.25;;;0.80;;
50547;SDS011;38013;48.810;8.818;2022-11-04T05:05:19;2.42;;;0.70;;
50547;SDS011;38013;48.810;8.818;2022-11-04T05:07:45;1.27;;;0.57;;
50547;SDS011;38013;48.810;8.818;2022-11-04T05:10:12;1.45;;;0.75;;
50547;SDS011;38013;48.810;8.818;2022-11-04T05:12:39;3.88;;;0.80;;
50547;SDS011;38013;48.810;8.818;2022-11-04T05:15:24;4.95;;;0.70;;
50547;SDS011;38013;48.810;8.818;2022-11-04T05:17:58;2.30;;;0.95;;
50547;SDS011;38013;48.810;8.818;2022-11-04T05:20:25;2.75;;;0.60;;
50547;SDS011;38013;48.810;8.818;2022-11-04T05:22:53;2.30;;;0.75;;
50547;SDS011;38013;48.810;8.818;2022-11-04T05:25:19;2.92;;;1.02;;
50547;SDS011;38013;48.810;8.818;2022-11-04T05:27:45;4.10;;;1.10;;
50547;SDS011;38013;48.810;8.818;2022-11-04T05:30:10;2.80;;;0.82;;
50547;SDS011;38013;48.810;8.818;2022-11-04T05:32:36;3.88;;;1.15;;
50547;SDS011;38013;48.810;8.818;2022-11-04T05:35:02;2.40;;;0.95;;
50547;SDS011;38013;48.810;8.818;2022-11-04T05:37:28;2.45;;;0.98;;
50547;SDS011;38013;48.810;8.818;2022-11-04T05:39:54;2.72;;;0.82;;
50547;SDS011;38013;48.810;8.818;2022-11-04T05:42:19;4.07;;;1.23;;
50547;SDS011;38013;48.810;8.818;2022-11-04T05:44:45;1.73;;;0.85;;
50547;SDS011;38013;48.810;8.818;2022-11-04T05:47:11;2.65;;;1.10;;
50547;SDS011;38013;48.810;8.818;2022-11-04T05:49:37;5.47;;;1.25;;
50547;SDS011;38013;48.810;8.818;2022-11-04T05:52:03;3.80;;;0.73;;
50547;SDS011;38013;48.810;8.818;2022-11-04T05:54:29;3.83;;;1.10;;
50547;SDS011;38013;48.810;8.818;2022-11-04T05:56:55;3.08;;;1.13;;
50547;SDS011;38013;48.810;8.818;2022-11-04T05:59:21;2.85;;;1.10;;
50547;SDS011;38013;48.810;8.818;2022-11-04T06:01:47;4.53;;;1.25;;
50547;SDS011;38013;48.810;8.818;2022-11-04T06:04:14;3.53;;;1.40;;
50547;SDS011;38013;48.810;8.818;2022-11-04T06:06:42;3.15;;;1.27;;
50547;SDS011;38013;48.810;8.818;2022-11-04T06:09:09;3.67;;;1.38;;
50547;SDS011;38013;48.810;8.818;2022-11-04T06:11:35;3.17;;;1.20;;
50547;SDS011;38013;48.810;8.818;2022-11-04T06:14:02;3.58;;;1.30;;
50547;SDS011;38013;48.810;8.818;2022-11-04T06:16:29;4.32;;;1.70;;
50547;SDS011;38013;48.810;8.818;2022-11-04T06:18:54;5.57;;;2.30;;
50547;SDS011;38013;48.810;8.818;2022-11-04T06:21:22;6.20;;;2.30;;
50547;SDS011;38013;48.810;8.818;2022-11-04T06:23:53;8.18;;;4.18;;
50547;SDS011;38013;48.810;8.818;2022-11-04T06:26:23;6.90;;;3.17;;
50547;SDS011;38013;48.810;8.818;2022-11-04T06:28:50;3.40;;;1.63;;
50547;SDS011;38013;48.810;8.818;2022-11-04T06:31:16;7.60;;;2.00;;
50547;SDS011;38013;48.810;8.818;2022-11-04T06:33:42;4.45;;;1.88;;
50547;SDS011;38013;48.810;8.818;2022-11-04T06:36:10;3.28;;;1.55;;
50547;SDS011;38013;48.810;8.818;2022-11-04T06:38:38;4.83;;;1.67;;
50547;SDS011;38013;48.810;8.818;2022-11-04T06:41:05;2.63;;;1.35;;
50547;SDS011;38013;48.810;8.818;2022-11-04T06:43:35;3.00;;;1.00;;
50547;SDS011;38013;48.810;8.818;2022-11-04T06:46:01;2.17;;;0.82;;
50547;SDS011;38013;48.810;8.818;2022-11-04T06:48:27;3.25;;;1.08;;
50547;SDS011;38013;48.810;8.818;2022-11-04T06:50:57;4.35;;;1.00;;
50547;SDS011;38013;48.810;8.818;2022-11-04T06:53:24;3.58;;;0.93;;
50547;SDS011;38013;48.810;8.818;2022-11-04T06:55:51;3.30;;;0.88;;
50547;SDS011;38013;48.810;8.818;2022-11-04T06:58:19;2.88;;;1.05;;
50547;SDS011;38013;48.810;8.818;2022-11-04T07:00:51;2.30;;;1.10;;
50547;SDS011;38013;48.810;8.818;2022-11-04T07:03:17;2.85;;;0.95;;
50547;SDS011;38013;48.810;8.818;2022-11-04T07:05:43;1.55;;;0.98;;
50547;SDS011;38013;48.810;8.818;2022-11-04T07:08:09;3.70;;;1.50;;
50547;SDS011;38013;48.810;8.818;2022-11-04T07:10:34;5.45;;;2.30;;
50547;SDS011;38013;48.810;8.818;2022-11-04T07:13:00;7.70;;;1.95;;
50547;SDS011;38013;48.810;8.818;2022-11-04T07:15:26;2.75;;;1.27;;
50547;SDS011;38013;48.810;8.818;2022-11-04T07:17:51;4.80;;;1.40;;
50547;SDS011;38013;48.810;8.818;2022-11-04T07:20:17;4.22;;;1.40;;
50547;SDS011;38013;48.810;8.818;2022-11-04T07:22:43;3.63;;;1.52;;
50547;SDS011;38013;48.810;8.818;2022-11-04T07:25:09;3.85;;;1.42;;
50547;SDS011;38013;48.810;8.818;2022-11-04T07:27:34;3.35;;;1.30;;
50547;SDS011;38013;48.810;8.818;2022-11-04T07:30:00;3.20;;;1.27;;
50547;SDS011;38013;48.810;8.818;2022-11-04T07:32:26;3.70;;;1.35;;
50547;SDS011;38013;48.810;8.818;2022-11-04T07:34:52;3.00;;;1.25;;
50547;SDS011;38013;48.810;8.818;2022-11-04T07:37:18;3.28;;;1.13;;
50547;SDS011;38013;48.810;8.818;2022-11-04T07:39:43;3.42;;;1.48;;
50547;SDS011;38013;48.810;8.818;2022-11-04T07:42:09;5.53;;;1.20;;
50547;SDS011;38013;48.810;8.818;2022-11-04T07:44:37;4.40;;;1.40;;
50547;SDS011;38013;48.810;8.818;2022-11-04T07:47:03;3.08;;;1.27;;
50547;SDS011;38013;48.810;8.818;2022-11-04T07:49:29;5.45;;;1.50;;
50547;SDS011;38013;48.810;8.818;2022-11-04T07:51:55;3.25;;;1.10;;
50547;SDS011;38013;48.810;8.818;2022-11-04T07:54:20;4.05;;;1.10;;
50547;SDS011;38013;48.810;8.818;2022-11-04T07:56:46;3.03;;;1.13;;
50547;SDS011;38013;48.810;8.818;2022-11-04T07:59:12;2.25;;;1.20;;
50547;SDS011;38013;48.810;8.818;2022-11-04T08:01:38;4.78;;;1.65;;
50547;SDS011;38013;48.810;8.818;2022-11-04T08:04:04;4.43;;;1.67;;
50547;SDS011;38013;48.810;8.818;2022-11-04T08:06:31;2.92;;;1.50;;
50547;SDS011;38013;48.810;8.818;2022-11-04T08:08:57;3.47;;;1.58;;
50547;SDS011;38013;48.810;8.818;2022-11-04T08:11:23;3.50;;;1.75;;
50547;SDS011;38013;48.810;8.818;2022-11-04T08:13:52;6.17;;;1.87;;
50547;SDS011;38013;48.810;8.818;2022-11-04T08:16:20;3.63;;;1.60;;
50547;SDS011;38013;48.810;8.818;2022-11-04T08:18:49;2.70;;;1.63;;
50547;SDS011;38013;48.810;8.818;2022-11-04T08:21:17;2.13;;;1.33;;
50547;SDS011;38013;48.810;8.818;2022-11-04T08:23:43;2.75;;;1.20;;
50547;SDS011;38013;48.810;8.818;2022-11-04T08:26:11;4.45;;;1.30;;
50547;SDS011;38013;48.810;8.818;2022-11-04T08:28:40;5.75;;;1.90;;
50547;SDS011;38013;48.810;8.818;2022-11-04T08:31:11;6.35;;;2.00;;
50547;SDS011;38013;48.810;8.818;2022-11-04T08:33:43;6.05;;;1.98;;
50547;SDS011;38013;48.810;8.818;2022-11-04T08:36:12;3.97;;;1.90;;
50547;SDS011;38013;48.810;8.818;2022-11-04T08:38:56;4.25;;;1.83;;
50547;SDS011;38013;48.810;8.818;2022-11-04T08:41:24;4.63;;;1.77;;
50547;SDS011;38013;48.810;8.818;2022-11-04T08:43:55;8.05;;;1.67;;
50547;SDS011;38013;48.810;8.818;2022-11-04T08:48:53;4.10;;;1.42;;
50547;SDS011;38013;48.810;8.818;2022-11-04T08:51:20;3.30;;;1.20;;
50547;SDS011;38013;48.810;8.818;2022-11-04T08:56:16;1.77;;;1.10;;
50547;SDS011;38013;48.810;8.818;2022-11-04T08:58:45;2.53;;;1.00;;
50547;SDS011;38013;48.810;8.818;2022-11-04T09:01:11;2.50;;;0.93;;
50547;SDS011;38013;48.810;8.818;2022-11-04T09:03:38;4.57;;;1.50;;
50547;SDS011;38013;48.810;8.818;2022-11-04T09:06:05;5.85;;;1.20;;
50547;SDS011;38013;48.810;8.818;2022-11-04T09:08:34;2.70;;;1.10;;
50547;SDS011;38013;48.810;8.818;2022-11-04T09:11:04;5.53;;;2.00;;
50547;SDS011;38013;48.810;8.818;2022-11-04T09:13:31;5.18;;;1.40;;
50547;SDS011;38013;48.810;8.818;2022-11-04T09:15:57;3.63;;;1.55;;
50547;SDS011;38013;48.810;8.818;2022-11-04T09:18:23;3.80;;;1.25;;
50547;SDS011;38013;48.810;8.818;2022-11-04T09:20:49;4.03;;;1.13;;
50547;SDS011;38013;48.810;8.818;2022-11-04T09:23:14;2.90;;;1.13;;
50547;SDS011;38013;48.810;8.818;2022-11-04T09:25:40;3.22;;;1.08;;
50547;SDS011;38013;48.810;8.818;2022-11-04T09:28:06;3.75;;;1.20;;
50547;SDS011;38013;48.810;8.818;2022-11-04T09:30:32;6.95;;;1.23;;
50547;SDS011;38013;48.810;8.818;2022-11-04T09:32:58;5.45;;;1.42;;
50547;SDS011;38013;48.810;8.818;2022-11-04T09:35:24;5.03;;;1.65;;
50547;SDS011;38013;48.810;8.818;2022-11-04T09:37:51;3.10;;;1.00;;
50547;SDS011;38013;48.810;8.818;2022-11-04T09:40:18;3.92;;;1.35;;
50547;SDS011;38013;48.810;8.818;2022-11-04T09:45:28;5.03;;;1.20;;
50547;SDS011;38013;48.810;8.818;2022-11-04T09:47:59;3.80;;;1.13;;
50547;SDS011;38013;48.810;8.818;2022-11-04T09:50:35;2.28;;;0.90;;
50547;SDS011;38013;48.810;8.818;2022-11-04T09:53:21;4.47;;;1.00;;
50547;SDS011;38013;48.810;8.818;2022-11-04T09:56:26;3.45;;;1.25;;
50547;SDS011;38013;48.810;8.818;2022-11-04T09:59:08;4.15;;;0.90;;
50547;SDS011;38013;48.810;8.818;2022-11-04T10:01:37;4.88;;;1.15;;
50547;SDS011;38013;48.810;8.818;2022-11-04T10:04:17;4.05;;;1.00;;
50547;SDS011;38013;48.810;8.818;2022-11-04T10:07:00;4.22;;;1.10;;
50547;SDS011;38013;48.810;8.818;2022-11-04T10:09:54;5.20;;;1.02;;
50547;SDS011;38013;48.810;8.818;2022-11-04T10:26:53;4.93;;;1.00;;
50547;SDS011;38013;48.810;8.818;2022-11-04T10:29:27;4.68;;;0.90;;
50547;SDS011;38013;48.810;8.818;2022-11-04T10:31:54;4.73;;;0.90;;
50547;SDS011;38013;48.810;8.818;2022-11-04T10:34:34;5.82;;;1.02;;
50547;SDS011;38013;48.810;8.818;2022-11-04T10:37:07;7.38;;;0.90;;
50547;SDS011;38013;48.810;8.818;2022-11-04T10:39:38;4.22;;;0.90;;
50547;SDS011;38013;48.810;8.818;2022-11-04T10:42:10;8.10;;;1.17;;
50547;SDS011;38013;48.810;8.818;2022-11-04T10:44:41;8.50;;;1.90;;
50547;SDS011;38013;48.810;8.818;2022-11-04T10:50:13;4.68;;;1.40;;
50547;SDS011;38013;48.810;8.818;2022-11-04T10:52:50;7.15;;;1.30;;
50547;SDS011;38013;48.810;8.818;2022-11-04T10:58:44;6.05;;;0.90;;
50547;SDS011;38013;48.810;8.818;2022-11-04T11:04:23;3.33;;;0.73;;
50547;SDS011;38013;48.810;8.818;2022-11-04T11:06:50;5.55;;;1.13;;
50547;SDS011;38013;48.810;8.818;2022-11-04T11:09:26;6.38;;;1.10;;
50547;SDS011;38013;48.810;8.818;2022-11-04T11:11:56;7.15;;;1.23;;
50547;SDS011;38013;48.810;8.818;2022-11-04T11:16:53;6.45;;;1.10;;
50547;SDS011;38013;48.810;8.818;2022-11-04T11:19:53;11.02;;;1.35;;
50547;SDS011;38013;48.810;8.818;2022-11-04T11:28:02;3.35;;;0.73;;
50547;SDS011;38013;48.810;8.818;2022-11-04T11:30:31;3.78;;;1.10;;
50547;SDS011;38013;48.810;8.818;2022-11-04T11:33:12;3.30;;;1.08;;
50547;SDS011;38013;48.810;8.818;2022-11-04T11:35:52;2.95;;;0.80;;
50547;SDS011;38013;48.810;8.818;2022-11-04T11:38:50;5.18;;;0.90;;
50547;SDS011;38013;48.810;8.818;2022-11-04T11:41:18;6.22;;;0.90;;
50547;SDS011;38013;48.810;8.818;2022-11-04T11:43:49;6.10;;;1.48;;
50547;SDS011;38013;48.810;8.818;2022-11-04T11:48:54;3.95;;;0.90;;
50547;SDS011;38013;48.810;8.818;2022-11-04T11:51:26;3.05;;;0.90;;
50547;SDS011;38013;48.810;8.818;2022-11-04T11:56:44;5.40;;;1.02;;
50547;SDS011;38013;48.810;8.818;2022-11-04T12:04:49;5.63;;;1.00;;
50547;SDS011;38013;48.810;8.818;2022-11-04T12:07:22;3.95;;;0.90;;
50547;SDS011;38013;48.810;8.818;2022-11-04T12:22:03;3.65;;;0.70;;
50547;SDS011;38013;48.810;8.818;2022-11-04T12:30:45;2.53;;;0.68;;
50547;SDS011;38013;48.810;8.818;2022-11-04T12:36:14;3.47;;;0.60;;
50547;SDS011;38013;48.810;8.818;2022-11-04T12:38:55;1.52;;;0.50;;
50547;SDS011;38013;48.810;8.818;2022-11-04T12:44:32;5.40;;;0.73;;
50547;SDS011;38013;48.810;8.818;2022-11-04T12:58:59;2.15;;;0.80;;
50547;SDS011;38013;48.810;8.818;2022-11-04T13:01:53;4.45;;;1.00;;
50547;SDS011;38013;48.810;8.818;2022-11-04T13:04:28;3.30;;;1.30;;
50547;SDS011;38013;48.810;8.818;2022-11-04T13:07:04;5.35;;;1.38;;
50547;SDS011;38013;48.810;8.818;2022-11-04T13:09:51;5.22;;;1.65;;
50547;SDS011;38013;48.810;8.818;2022-11-04T13:12:21;3.13;;;0.90;;
50547;SDS011;38013;48.810;8.818;2022-11-04T13:14:59;3.38;;;0.80;;
50547;SDS011;38013;48.810;8.818;2022-11-04T13:17:37;1.92;;;0.70;;
50547;SDS011;38013;48.810;8.818;2022-11-04T13:22:46;3.70;;;1.02;;
50547;SDS011;38013;48.810;8.818;2022-11-04T13:25:25;3.88;;;1.35;;
50547;SDS011;38013;48.810;8.818;2022-11-04T13:27:57;4.72;;;1.48;;
50547;SDS011;38013;48.810;8.818;2022-11-04T13:30:42;6.07;;;1.52;;
50547;SDS011;38013;48.810;8.818;2022-11-04T13:38:53;6.03;;;1.30;;
50547;SDS011;38013;48.810;8.818;2022-11-04T13:41:39;4.63;;;1.27;;
50547;SDS011;38013;48.810;8.818;2022-11-04T13:44:34;6.68;;;1.70;;
50547;SDS011;38013;48.810;8.818;2022-11-04T13:47:12;2.90;;;1.08;;
50547;SDS011;38013;48.810;8.818;2022-11-04T13:49:52;3.63;;;1.15;;
50547;SDS011;38013;48.810;8.818;2022-11-04T13:52:20;3.90;;;1.27;;
50547;SDS011;38013;48.810;8.818;2022-11-04T13:54:55;6.85;;;1.38;;
50547;SDS011;38013;48.810;8.818;2022-11-04T13:57:24;3.25;;;1.17;;
50547;SDS011;38013;48.810;8.818;2022-11-04T14:10:59;3.47;;;1.55;;
50547;SDS011;38013;48.810;8.818;2022-11-04T14:16:01;7.35;;;1.50;;
50547;SDS011;38013;48.810;8.818;2022-11-04T14:18:29;5.10;;;1.70;;
50547;SDS011;38013;48.810;8.818;2022-11-04T14:21:08;4.93;;;1.50;;
50547;SDS011;38013;48.810;8.818;2022-11-04T14:23:46;4.63;;;1.10;;
50547;SDS011;38013;48.810;8.818;2022-11-04T14:26:17;5.47;;;1.23;;
50547;SDS011;38013;48.810;8.818;2022-11-04T14:31:51;3.22;;;1.08;;
50547;SDS011;38013;48.810;8.818;2022-11-04T14:36:54;2.05;;;0.80;;
50547;SDS011;38013;48.810;8.818;2022-11-04T14:39:23;3.80;;;0.90;;
50547;SDS011;38013;48.810;8.818;2022-11-04T14:42:00;2.83;;;0.90;;
50547;SDS011;38013;48.810;8.818;2022-11-04T14:47:18;2.30;;;1.05;;
50547;SDS011;38013;48.810;8.818;2022-11-04T14:49:50;5.68;;;1.20;;
50547;SDS011;38013;48.810;8.818;2022-11-04T14:52:25;4.32;;;1.10;;
50547;SDS011;38013;48.810;8.818;2022-11-04T14:55:18;4.25;;;1.17;;
50547;SDS011;38013;48.810;8.818;2022-11-04T14:57:48;6.35;;;1.45;;
50547;SDS011;38013;48.810;8.818;2022-11-04T15:00:30;4.75;;;1.50;;
50547;SDS011;38013;48.810;8.818;2022-11-04T15:05:52;5.13;;;1.27;;
50547;SDS011;38013;48.810;8.818;2022-11-04T15:08:25;6.33;;;2.07;;
50547;SDS011;38013;48.810;8.818;2022-11-04T15:11:00;11.57;;;5.07;;
50547;SDS011;38013;48.810;8.818;2022-11-04T15:18:48;8.48;;;3.55;;
50547;SDS011;38013;48.810;8.818;2022-11-04T15:21:16;10.77;;;3.13;;
50547;SDS011;38013;48.810;8.818;2022-11-04T15:23:45;6.07;;;2.58;;
50547;SDS011;38013;48.810;8.818;2022-11-04T15:26:17;5.32;;;1.80;;
50547;SDS011;38013;48.810;8.818;2022-11-04T15:28:50;5.00;;;1.70;;
50547;SDS011;38013;48.810;8.818;2022-11-04T15:31:18;5.28;;;1.58;;
50547;SDS011;38013;48.810;8.818;2022-11-04T15:33:51;5.55;;;1.80;;
50547;SDS011;38013;48.810;8.818;2022-11-04T15:36:23;8.40;;;4.03;;
50547;SDS011;38013;48.810;8.818;2022-11-04T15:41:31;5.38;;;1.52;;
50547;SDS011;38013;48.810;8.818;2022-11-04T15:44:21;7.18;;;1.38;;
50547;SDS011;38013;48.810;8.818;2022-11-04T15:47:00;5.35;;;1.55;;
50547;SDS011;38013;48.810;8.818;2022-11-04T15:49:50;3.50;;;1.60;;
50547;SDS011;38013;48.810;8.818;2022-11-04T15:54:51;4.28;;;1.77;;
50547;SDS011;38013;48.810;8.818;2022-11-04T15:57:26;4.30;;;2.22;;
50547;SDS011;38013;48.810;8.818;2022-11-04T16:02:43;4.53;;;1.88;;
50547;SDS011;38013;48.810;8.818;2022-11-04T16:05:26;5.57;;;1.80;;
50547;SDS011;38013;48.810;8.818;2022-11-04T16:08:19;5.13;;;1.50;;
50547;SDS011;38013;48.810;8.818;2022-11-04T16:10:47;2.92;;;1.20;;
50547;SDS011;38013;48.810;8.818;2022-11-04T16:15:40;4.53;;;1.25;;
50547;SDS011;38013;48.810;8.818;2022-11-04T16:21:22;3.50;;;0.90;;
50547;SDS011;38013;48.810;8.818;2022-11-04T16:24:01;2.55;;;0.88;;
50547;SDS011;38013;48.810;8.818;2022-11-04T16:26:41;2.40;;;1.00;;
50547;SDS011;38013;48.810;8.818;2022-11-04T16:29:13;3.13;;;1.02;;
50547;SDS011;38013;48.810;8.818;2022-11-04T16:32:07;5.20;;;1.15;;
50547;SDS011;38013;48.810;8.818;2022-11-04T16:34:49;3.97;;;1.40;;
50547;SDS011;38013;48.810;8.818;2022-11-04T16:37:20;3.50;;;1.17;;
50547;SDS011;38013;48.810;8.818;2022-11-04T16:39:46;6.10;;;1.48;;
50547;SDS011;38013;48.810;8.818;2022-11-04T16:42:13;5.32;;;1.38;;
50547;SDS011;38013;48.810;8.818;2022-11-04T16:44:51;4.10;;;1.40;;
50547;SDS011;38013;48.810;8.818;2022-11-04T16:47:24;4.45;;;1.55;;
50547;SDS011;38013;48.810;8.818;2022-11-04T16:49:52;4.03;;;1.90;;
50547;SDS011;38013;48.810;8.818;2022-11-04T16:52:20;4.22;;;1.50;;
50547;SDS011;38013;48.810;8.818;2022-11-04T16:54:49;4.25;;;1.33;;
50547;SDS011;38013;48.810;8.818;2022-11-04T16:57:15;3.78;;;1.83;;
50547;SDS011;38013;48.810;8.818;2022-11-04T16:59:41;4.85;;;2.13;;
50547;SDS011;38013;48.810;8.818;2022-11-04T17:04:58;4.25;;;2.08;;
50547;SDS011;38013;48.810;8.818;2022-11-04T17:07:24;5.53;;;2.10;;
50547;SDS011;38013;48.810;8.818;2022-11-04T17:09:50;9.70;;;2.45;;
50547;SDS011;38013;48.810;8.818;2022-11-04T17:12:16;7.55;;;1.95;;
50547;SDS011;38013;48.810;8.818;2022-11-04T17:14:42;4.13;;;1.73;;
50547;SDS011;38013;48.810;8.818;2022-11-04T17:17:08;5.15;;;1.98;;
50547;SDS011;38013;48.810;8.818;2022-11-04T17:19:35;4.43;;;1.70;;
50547;SDS011;38013;48.810;8.818;2022-11-04T17:22:01;4.05;;;1.55;;
50547;SDS011;38013;48.810;8.818;2022-11-04T17:24:30;3.90;;;1.58;;
50547;SDS011;38013;48.810;8.818;2022-11-04T17:26:56;3.28;;;1.50;;
50547;SDS011;38013;48.810;8.818;2022-11-04T17:29:22;3.25;;;1.20;;
50547;SDS011;38013;48.810;8.818;2022-11-04T17:31:48;2.65;;;1.35;;
50547;SDS011;38013;48.810;8.818;2022-11-04T17:34:17;3.72;;;1.60;;
50547;SDS011;38013;48.810;8.818;2022-11-04T17:36:42;2.90;;;1.42;;
50547;SDS011;38013;48.810;8.818;2022-11-04T17:39:08;2.50;;;1.30;;
50547;SDS011;38013;48.810;8.818;2022-11-04T17:41:34;3.17;;;1.60;;
50547;SDS011;38013;48.810;8.818;2022-11-04T17:44:18;4.03;;;1.80;;
50547;SDS011;38013;48.810;8.818;2022-11-04T17:46:44;3.88;;;1.60;;
50547;SDS011;38013;48.810;8.818;2022-11-04T17:49:13;7.65;;;2.10;;
50547;SDS011;38013;48.810;8.818;2022-11-04T17:51:43;10.90;;;2.72;;
50547;SDS011;38013;48.810;8.818;2022-11-04T17:54:11;6.03;;;3.72;;
50547;SDS011;38013;48.810;8.818;2022-11-04T17:56:38;6.72;;;3.65;;
50547;SDS011;38013;48.810;8.818;2022-11-04T17:59:05;5.15;;;2.53;;
50547;SDS011;38013;48.810;8.818;2022-11-04T18:01:32;4.13;;;2.30;;
50547;SDS011;38013;48.810;8.818;2022-11-04T18:03:59;5.65;;;2.65;;
50547;SDS011;38013;48.810;8.818;2022-11-04T18:06:27;5.75;;;2.67;;
50547;SDS011;38013;48.810;8.818;2022-11-04T18:08:55;3.65;;;1.85;;
50547;SDS011;38013;48.810;8.818;2022-11-04T18:11:23;6.68;;;1.83;;
50547;SDS011;38013;48.810;8.818;2022-11-04T18:14:09;5.43;;;2.22;;
50547;SDS011;38013;48.810;8.818;2022-11-04T18:16:37;5.38;;;2.80;;